Time;durP1;ratioP1;P1;durP2;ratioP2;P2;SDS_P1;SDS_P2;PMS_P1;PMS_P2;Temp;Humidity;BMP_temperature;BMP_pressure;BME280_temperature;BME280_humidity;BME280_pressure;Samples;Min_cycle;Max_cycle;Signal;HPM_P1;HPM_P2
2020/12/02 00:02:31;;;;;;;22.30;15.60;;;8.00;99.90;;;;;;5073462;28;20175;-81
2020/12/02 00:05:08;;;;;;;30.23;20.77;;;8.00;99.90;;;;;;5040934;28;20600;-81
2020/12/02 00:07:34;;;;;;;25.13;16.13;;;8.00;99.90;;;;;;5044129;28;20186;-81
2020/12/02 00:10:01;;;;;;;28.30;19.73;;;7.90;99.90;;;;;;5040816;28;20195;-81
2020/12/02 00:12:28;;;;;;;23.95;15.75;;;7.90;99.90;;;;;;5040827;28;20257;-81
2020/12/02 00:14:54;;;;;;;20.90;15.05;;;7.90;99.90;;;;;;5059973;28;20187;-81
2020/12/02 00:17:21;;;;;;;25.63;14.83;;;7.80;99.90;;;;;;5075909;28;20222;-81
2020/12/02 00:19:52;;;;;;;20.90;14.70;;;7.80;99.90;;;;;;5041037;28;20960;-81
2020/12/02 00:22:22;;;;;;;26.15;17.25;;;7.80;99.90;;;;;;5073445;28;20192;-81
2020/12/02 00:24:51;;;;;;;22.05;15.90;;;7.80;99.90;;;;;;5060219;28;20194;-81
2020/12/02 00:27:26;;;;;;;18.88;13.65;;;7.80;99.90;;;;;;5060330;28;20182;-81
2020/12/02 00:29:55;;;;;;;24.80;18.10;;;7.80;99.90;;;;;;5056704;28;20271;-81
2020/12/02 00:32:31;;;;;;;24.63;18.27;;;7.70;99.90;;;;;;5060127;28;20282;-81
2020/12/02 00:34:58;;;;;;;26.50;18.17;;;7.70;99.90;;;;;;5043657;28;20620;-81
2020/12/02 00:37:26;;;;;;;24.23;16.92;;;7.70;99.90;;;;;;5057967;28;20195;-81
2020/12/02 00:39:54;;;;;;;25.10;18.75;;;7.70;99.90;;;;;;5043093;28;20290;-81
2020/12/02 00:42:21;;;;;;;24.98;17.95;;;7.70;99.90;;;;;;5056407;28;20666;-81
2020/12/02 00:44:48;;;;;;;22.05;16.85;;;7.70;99.90;;;;;;5073315;28;20179;-81
2020/12/02 00:47:21;;;;;;;21.83;15.07;;;7.70;99.90;;;;;;5060084;28;20251;-81
2020/12/02 00:49:50;;;;;;;24.17;14.55;;;7.70;99.90;;;;;;5060090;28;20198;-81
2020/12/02 00:52:17;;;;;;;20.40;14.60;;;7.70;99.90;;;;;;5073522;28;20274;-81
2020/12/02 00:54:46;;;;;;;20.67;13.55;;;7.80;99.90;;;;;;5073412;28;20460;-81
2020/12/02 00:57:28;;;;;;;20.23;14.55;;;7.70;99.90;;;;;;5059257;28;20286;-81
2020/12/02 00:59:57;;;;;;;17.83;13.27;;;7.80;99.90;;;;;;5059767;28;20183;-81
2020/12/02 01:02:56;;;;;;;21.73;14.48;;;7.70;99.90;;;;;;5059810;28;20645;-81
2020/12/02 01:05:22;;;;;;;20.77;14.57;;;7.80;99.90;;;;;;5059476;28;20175;-81
2020/12/02 01:07:48;;;;;;;19.30;13.50;;;7.80;99.90;;;;;;5073101;28;20567;-81
2020/12/02 01:10:15;;;;;;;20.50;14.75;;;7.70;99.90;;;;;;5042194;28;20179;-81
2020/12/02 01:12:46;;;;;;;24.58;15.68;;;7.80;99.90;;;;;;5059934;28;20543;-81
2020/12/02 01:15:21;;;;;;;22.52;14.70;;;7.70;99.90;;;;;;5057851;28;20184;-81
2020/12/02 01:18:07;;;;;;;23.63;14.82;;;7.70;99.90;;;;;;5043047;28;20332;-81
2020/12/02 01:20:33;;;;;;;27.42;16.58;;;7.80;99.90;;;;;;5039993;28;20187;-81
2020/12/02 01:22:59;;;;;;;22.90;15.80;;;7.80;99.90;;;;;;5039656;28;20188;-81
2020/12/02 01:25:28;;;;;;;22.77;16.17;;;7.80;99.90;;;;;;5047730;28;20897;-81
2020/12/02 01:28:03;;;;;;;29.85;17.80;;;7.80;99.90;;;;;;5079541;28;20488;-81
2020/12/02 01:30:31;;;;;;;23.47;15.97;;;7.80;99.90;;;;;;5052461;28;20245;-81
2020/12/02 01:33:02;;;;;;;26.13;16.35;;;7.80;99.90;;;;;;5047118;28;20779;-81
2020/12/02 01:35:30;;;;;;;22.15;14.90;;;7.80;99.90;;;;;;5076601;28;20238;-82
2020/12/02 01:38:00;;;;;;;23.05;15.00;;;7.80;99.90;;;;;;5024039;28;20216;-81
2020/12/02 01:40:31;;;;;;;24.88;15.98;;;7.80;99.90;;;;;;5033549;28;20180;-81
2020/12/02 01:43:03;;;;;;;22.83;15.15;;;7.80;99.90;;;;;;5076716;28;20188;-81
2020/12/02 01:45:36;;;;;;;21.55;14.93;;;7.80;99.90;;;;;;5050458;28;20173;-81
2020/12/02 01:48:17;;;;;;;26.92;15.35;;;7.80;99.90;;;;;;5056686;28;20200;-81
2020/12/02 01:51:03;;;;;;;21.63;14.25;;;7.80;99.90;;;;;;5041564;28;20291;-81
2020/12/02 01:54:00;;;;;;;22.50;15.60;;;7.80;99.90;;;;;;5049351;28;20191;-81
2020/12/02 01:56:37;;;;;;;23.75;15.52;;;7.80;99.90;;;;;;5029663;28;20291;-81
2020/12/02 01:59:27;;;;;;;24.58;16.00;;;7.80;99.90;;;;;;5070144;28;20559;-81
2020/12/02 02:02:10;;;;;;;21.65;14.80;;;7.80;99.90;;;;;;5049062;28;20191;-81
2020/12/02 02:04:59;;;;;;;20.58;14.25;;;7.90;99.90;;;;;;5078130;28;20582;-81
2020/12/02 02:07:26;;;;;;;23.75;15.60;;;7.80;99.90;;;;;;5058907;28;20612;-81
2020/12/02 02:10:06;;;;;;;20.25;14.45;;;7.80;99.90;;;;;;5043316;28;20203;-81
2020/12/02 02:12:54;;;;;;;21.52;14.40;;;7.90;99.90;;;;;;5060270;28;20268;-81
2020/12/02 02:15:41;;;;;;;22.77;14.57;;;7.80;99.90;;;;;;5039617;28;20247;-81
2020/12/02 02:18:20;;;;;;;25.80;15.45;;;7.70;99.90;;;;;;5042698;28;20640;-81
2020/12/02 02:21:15;;;;;;;26.95;15.45;;;7.70;99.90;;;;;;5059324;28;20176;-81
2020/12/02 02:23:42;;;;;;;29.33;16.60;;;7.60;99.90;;;;;;5059523;28;20245;-81
2020/12/02 02:26:14;;;;;;;25.42;15.27;;;7.60;99.90;;;;;;5042075;28;20271;-81
2020/12/02 02:29:21;;;;;;;24.13;15.65;;;7.60;99.90;;;;;;5041457;28;20258;-81
2020/12/02 02:32:10;;;;;;;27.92;14.73;;;7.60;99.90;;;;;;5058244;28;20564;-81
2020/12/02 02:34:44;;;;;;;22.98;14.25;;;7.60;99.90;;;;;;5039367;28;20177;-81
2020/12/02 02:37:12;;;;;;;24.88;15.77;;;7.60;99.90;;;;;;5055446;28;20538;-81
2020/12/02 02:39:40;;;;;;;22.08;14.32;;;7.60;99.90;;;;;;5075579;28;20636;-81
2020/12/02 02:42:23;;;;;;;22.67;14.93;;;7.60;99.90;;;;;;5052102;28;20168;-81
2020/12/02 02:44:50;;;;;;;26.00;15.60;;;7.60;99.90;;;;;;5022592;28;20189;-81
2020/12/02 02:47:18;;;;;;;24.02;14.60;;;7.60;99.90;;;;;;5030874;28;20274;-81
2020/12/02 02:49:44;;;;;;;25.77;15.68;;;7.60;99.90;;;;;;5058714;28;20184;-81
2020/12/02 02:52:09;;;;;;;26.10;16.03;;;7.60;99.90;;;;;;5057909;28;20214;-81
2020/12/02 02:54:38;;;;;;;23.67;14.90;;;7.60;99.90;;;;;;5058692;28;20442;-81
2020/12/02 02:57:04;;;;;;;24.50;15.53;;;7.60;99.90;;;;;;5053440;28;20504;-81
2020/12/02 02:59:30;;;;;;;22.15;15.20;;;7.60;99.90;;;;;;5022389;28;20904;-81
2020/12/02 03:01:59;;;;;;;19.48;14.07;;;7.70;99.90;;;;;;5036243;28;20180;-81
2020/12/02 03:04:27;;;;;;;22.85;14.25;;;7.60;99.90;;;;;;5057331;28;20187;-81
2020/12/02 03:06:55;;;;;;;22.33;14.40;;;7.70;99.90;;;;;;5042057;28;20183;-81
2020/12/02 03:09:21;;;;;;;21.52;14.63;;;7.70;99.90;;;;;;5028042;28;20188;-81
2020/12/02 03:11:54;;;;;;;24.50;16.08;;;7.70;99.90;;;;;;5022537;28;20630;-81
2020/12/02 03:14:21;;;;;;;25.02;14.50;;;7.70;99.90;;;;;;5022556;28;20180;-81
2020/12/02 03:16:51;;;;;;;25.45;16.73;;;7.70;99.90;;;;;;5040299;28;20201;-81
2020/12/02 03:19:24;;;;;;;24.58;16.98;;;7.70;99.90;;;;;;5041770;28;20180;-81
2020/12/02 03:21:55;;;;;;;22.95;15.73;;;7.70;99.90;;;;;;5040280;28;20657;-81
2020/12/02 03:24:23;;;;;;;21.63;15.85;;;7.60;99.90;;;;;;5038479;28;20282;-81
2020/12/02 03:26:52;;;;;;;21.60;15.25;;;7.60;99.90;;;;;;5032611;28;20184;-81
2020/12/02 03:29:19;;;;;;;26.50;17.25;;;7.70;99.90;;;;;;5057919;28;20183;-81
2020/12/02 03:31:51;;;;;;;21.30;15.55;;;7.60;99.90;;;;;;5056884;28;20222;-82
2020/12/02 03:34:20;;;;;;;24.17;15.10;;;7.60;99.90;;;;;;5057968;28;20555;-81
2020/12/02 03:36:47;;;;;;;23.40;15.00;;;7.70;99.90;;;;;;5057252;28;20219;-82
2020/12/02 03:39:16;;;;;;;22.40;15.32;;;7.70;99.90;;;;;;5041510;28;20215;-81
2020/12/02 03:41:42;;;;;;;25.90;15.77;;;7.60;99.90;;;;;;5034467;28;20185;-81
2020/12/02 03:44:09;;;;;;;22.33;15.25;;;7.60;99.90;;;;;;5021591;28;20238;-81
2020/12/02 03:46:36;;;;;;;24.50;15.50;;;7.70;99.90;;;;;;5054122;28;20714;-82
2020/12/02 03:49:03;;;;;;;25.63;15.18;;;7.70;99.90;;;;;;5057588;28;20230;-82
2020/12/02 03:51:32;;;;;;;18.08;12.48;;;7.70;99.90;;;;;;5058470;28;20219;-81
2020/12/02 03:53:58;;;;;;;19.08;13.75;;;7.60;99.90;;;;;;5037771;28;20605;-82
2020/12/02 03:56:27;;;;;;;24.23;15.70;;;7.70;99.90;;;;;;5027595;28;20212;-82
2020/12/02 03:58:54;;;;;;;20.38;15.05;;;7.70;99.90;;;;;;5028842;28;20235;-82
2020/12/02 04:01:20;;;;;;;24.02;14.80;;;7.70;99.90;;;;;;5020880;28;20180;-81
2020/12/02 04:03:46;;;;;;;22.52;14.85;;;7.60;99.90;;;;;;5038334;28;20195;-81
2020/12/02 04:06:12;;;;;;;21.73;14.20;;;7.60;99.90;;;;;;5021313;28;20200;-81
2020/12/02 04:08:42;;;;;;;19.57;13.53;;;7.60;99.90;;;;;;5034305;28;20573;-82
2020/12/02 04:11:11;;;;;;;19.70;14.50;;;7.60;99.90;;;;;;5054209;28;20399;-82
2020/12/02 04:13:39;;;;;;;23.88;14.32;;;7.60;99.90;;;;;;5022564;28;20203;-81
2020/12/02 04:16:08;;;;;;;20.67;14.27;;;7.60;99.90;;;;;;5021251;28;20216;-81
2020/12/02 04:18:33;;;;;;;18.38;12.10;;;7.70;99.90;;;;;;5028174;28;20176;-82
2020/12/02 04:21:00;;;;;;;17.40;11.80;;;7.70;99.90;;;;;;5040672;28;20213;-81
2020/12/02 04:23:26;;;;;;;17.10;12.25;;;7.70;99.90;;;;;;5034929;28;20431;-82
2020/12/02 04:25:57;;;;;;;16.70;12.38;;;7.70;99.90;;;;;;5036793;28;20627;-82
2020/12/02 04:28:23;;;;;;;18.63;12.38;;;7.70;99.90;;;;;;5030423;28;20176;-82
2020/12/02 04:30:49;;;;;;;18.60;11.37;;;7.70;99.90;;;;;;5053670;28;20188;-82
2020/12/02 04:33:15;;;;;;;17.30;11.55;;;7.70;99.90;;;;;;5021311;28;20422;-82
2020/12/02 04:35:44;;;;;;;18.67;11.45;;;7.70;99.90;;;;;;5045031;28;20715;-81
2020/12/02 04:38:11;;;;;;;22.20;14.55;;;7.80;99.90;;;;;;5039656;28;20222;-82
2020/12/02 04:40:40;;;;;;;21.33;13.27;;;7.70;99.90;;;;;;5057156;28;20233;-83
2020/12/02 04:43:18;;;;;;;22.75;13.60;;;7.70;99.90;;;;;;5040130;28;20190;-82
2020/12/02 04:45:45;;;;;;;23.58;13.50;;;7.70;99.90;;;;;;5040385;28;20516;-82
2020/12/02 04:48:15;;;;;;;19.15;12.90;;;7.70;99.90;;;;;;5056840;28;20506;-82
2020/12/02 04:50:41;;;;;;;24.88;15.48;;;7.70;99.90;;;;;;5056816;28;20183;-82
2020/12/02 04:53:21;;;;;;;32.90;15.80;;;7.70;99.90;;;;;;5057179;28;20176;-81
2020/12/02 04:55:56;;;;;;;28.00;14.68;;;7.70;99.90;;;;;;5047609;28;20203;-81
2020/12/02 04:58:27;;;;;;;25.70;15.65;;;7.80;99.90;;;;;;5044176;28;20207;-82
2020/12/02 05:00:54;;;;;;;30.45;15.60;;;7.70;99.90;;;;;;5040412;28;20180;-82
2020/12/02 05:03:22;;;;;;;27.27;15.60;;;7.70;99.90;;;;;;5041984;28;20208;-81
2020/12/02 05:05:59;;;;;;;27.02;15.90;;;7.70;99.90;;;;;;5020415;28;20200;-82
2020/12/02 05:08:29;;;;;;;31.85;16.40;;;7.80;99.90;;;;;;5021679;28;20199;-82
2020/12/02 05:10:56;;;;;;;34.45;18.02;;;7.70;99.90;;;;;;5022584;28;20544;-81
2020/12/02 05:13:23;;;;;;;34.53;17.90;;;7.70;99.90;;;;;;5039652;28;20496;-82
2020/12/02 05:16:11;;;;;;;29.42;17.63;;;7.70;99.90;;;;;;5040299;28;20214;-82
2020/12/02 05:18:37;;;;;;;31.50;18.50;;;7.70;99.90;;;;;;5072772;28;20648;-82
2020/12/02 05:21:19;;;;;;;35.37;17.30;;;7.70;99.90;;;;;;5056460;28;20257;-82
2020/12/02 05:24:18;;;;;;;35.15;17.52;;;7.70;99.90;;;;;;5039889;28;20882;-82
2020/12/02 05:26:50;;;;;;;35.55;18.55;;;7.70;99.90;;;;;;5065184;28;20187;-81
2020/12/02 05:29:37;;;;;;;32.20;17.42;;;7.70;99.90;;;;;;5048018;28;20230;-82
2020/12/02 05:32:11;;;;;;;39.22;20.52;;;7.70;99.90;;;;;;5065229;28;20321;-81
2020/12/02 05:34:37;;;;;;;44.55;19.73;;;7.60;99.90;;;;;;5039660;28;20525;-81
2020/12/02 05:37:10;;;;;;;45.17;21.75;;;7.50;99.90;;;;;;5052366;28;20231;-82
2020/12/02 05:39:52;;;;;;;42.70;18.80;;;7.50;99.90;;;;;;5036201;28;20176;-82
2020/12/02 05:42:51;;;;;;;41.17;20.50;;;7.50;99.90;;;;;;5038770;28;20184;-81
2020/12/02 05:45:40;;;;;;;33.67;21.55;;;7.50;99.90;;;;;;5042898;28;20183;-82
2020/12/02 05:48:22;;;;;;;41.55;18.58;;;7.50;99.90;;;;;;5055871;28;20291;-82
2020/12/02 05:50:50;;;;;;;32.53;20.42;;;7.50;99.90;;;;;;5048604;28;20175;-82
2020/12/02 05:53:42;;;;;;;34.10;18.98;;;7.40;99.90;;;;;;5039332;28;20184;-82
2020/12/02 05:56:09;;;;;;;36.60;19.00;;;7.40;99.90;;;;;;5044810;28;20180;-81
2020/12/02 05:58:40;;;;;;;36.00;18.73;;;7.50;99.90;;;;;;5047612;28;20190;-81
2020/12/02 06:01:11;;;;;;;36.60;18.17;;;7.40;99.90;;;;;;5048107;28;20176;-81
2020/12/02 06:03:38;;;;;;;33.05;17.45;;;7.40;99.90;;;;;;5039258;28;20192;-82
2020/12/02 06:06:13;;;;;;;31.25;17.30;;;7.50;99.90;;;;;;5020182;28;20192;-82
2020/12/02 06:08:50;;;;;;;30.65;17.70;;;7.50;99.90;;;;;;5042043;28;20202;-82
2020/12/02 06:11:18;;;;;;;36.35;16.98;;;7.50;99.90;;;;;;5056028;28;20536;-82
2020/12/02 06:14:14;;;;;;;30.50;16.93;;;7.50;99.90;;;;;;5072536;28;20176;-81
2020/12/02 06:16:46;;;;;;;31.58;17.13;;;7.50;99.90;;;;;;5021199;28;20459;-81
2020/12/02 06:19:36;;;;;;;33.95;16.25;;;7.60;99.90;;;;;;5023335;28;20195;-81
2020/12/02 06:22:03;;;;;;;25.58;15.45;;;7.50;99.90;;;;;;5024223;28;20192;-82
2020/12/02 06:24:35;;;;;;;28.38;15.25;;;7.60;99.90;;;;;;5023283;28;20579;-81
2020/12/02 06:27:31;;;;;;;26.13;14.23;;;7.50;99.90;;;;;;5031680;28;20199;-81
2020/12/02 06:30:03;;;;;;;28.58;16.00;;;7.50;99.90;;;;;;5058682;28;20567;-81
2020/12/02 06:32:29;;;;;;;24.45;15.40;;;7.60;99.90;;;;;;5042973;28;20180;-81
2020/12/02 06:35:15;;;;;;;29.33;15.75;;;7.60;99.90;;;;;;5045605;28;20254;-80
2020/12/02 06:37:41;;;;;;;28.30;15.10;;;7.60;99.90;;;;;;5046080;28;20624;-81
2020/12/02 06:40:17;;;;;;;25.85;14.57;;;7.60;99.90;;;;;;5044609;28;20209;-81
2020/12/02 06:42:44;;;;;;;23.67;12.95;;;7.60;99.90;;;;;;5042621;28;20187;-84
2020/12/02 06:45:16;;;;;;;19.73;12.23;;;7.60;99.90;;;;;;5043248;28;20678;-84
2020/12/02 06:47:53;;;;;;;22.13;13.65;;;7.60;99.90;;;;;;5061983;28;20276;-85
2020/12/02 06:50:27;;;;;;;20.55;13.48;;;7.60;99.90;;;;;;5046087;28;20186;-85
2020/12/02 06:53:06;;;;;;;23.63;13.15;;;7.60;99.90;;;;;;5058588;28;20179;-85
2020/12/02 06:55:35;;;;;;;23.45;15.05;;;7.60;99.90;;;;;;5052560;28;20202;-85
2020/12/02 06:58:17;;;;;;;28.38;13.93;;;7.60;99.90;;;;;;5068810;28;20208;-84
2020/12/02 07:00:47;;;;;;;28.05;15.30;;;7.60;99.90;;;;;;5074891;28;20188;-82
2020/12/02 07:03:30;;;;;;;30.13;14.35;;;7.60;99.90;;;;;;5045372;28;20209;-83
2020/12/02 07:06:08;;;;;;;22.95;13.73;;;7.60;99.90;;;;;;5077397;28;20206;-81
2020/12/02 07:08:35;;;;;;;26.05;16.02;;;7.60;99.90;;;;;;5041931;28;20270;-82
2020/12/02 07:11:22;;;;;;;25.58;14.20;;;7.60;99.90;;;;;;5045816;28;20528;-82
2020/12/02 07:13:51;;;;;;;24.95;14.38;;;7.60;99.90;;;;;;5045339;28;20193;-82
2020/12/02 07:16:29;;;;;;;28.15;13.85;;;7.60;99.90;;;;;;5041633;28;20233;-82
2020/12/02 07:19:06;;;;;;;26.20;14.82;;;7.70;99.90;;;;;;5058189;28;20247;-83
2020/12/02 07:21:46;;;;;;;28.98;15.65;;;7.60;99.90;;;;;;5078453;28;20174;-83
2020/12/02 07:24:27;;;;;;;32.47;17.95;;;7.70;99.90;;;;;;5044892;28;20203;-83
2020/12/02 07:26:56;;;;;;;34.35;18.63;;;7.60;99.90;;;;;;5057628;28;20533;-82
2020/12/02 07:29:26;;;;;;;34.30;18.17;;;7.60;99.90;;;;;;5057952;28;20291;-83
2020/12/02 07:32:01;;;;;;;32.40;19.90;;;7.60;99.90;;;;;;5077232;28;20600;-83
2020/12/02 07:34:33;;;;;;;33.63;19.48;;;7.60;99.90;;;;;;5045982;28;20183;-83
2020/12/02 07:37:26;;;;;;;38.63;20.88;;;7.60;99.90;;;;;;5040393;28;20234;-84
2020/12/02 07:40:00;;;;;;;32.00;19.60;;;7.60;99.90;;;;;;5071926;28;20628;-83
2020/12/02 07:42:35;;;;;;;32.92;17.63;;;7.50;99.90;;;;;;5021431;28;20188;-83
2020/12/02 07:45:15;;;;;;;30.85;19.20;;;7.50;99.90;;;;;;5022208;28;20288;-84
2020/12/02 07:48:21;;;;;;;28.88;18.35;;;7.50;99.90;;;;;;5044170;28;20210;-83
2020/12/02 07:50:53;;;;;;;25.55;16.77;;;7.40;99.90;;;;;;5047554;28;20187;-79
2020/12/02 07:53:42;;;;;;;31.83;18.60;;;7.40;99.90;;;;;;5056385;28;20202;-79
2020/12/02 07:56:25;;;;;;;29.10;19.05;;;7.40;99.90;;;;;;5049465;28;20180;-79
2020/12/02 07:58:51;;;;;;;31.42;18.00;;;7.50;99.90;;;;;;5022628;28;20177;-79
2020/12/02 08:01:33;;;;;;;34.55;19.13;;;7.50;99.90;;;;;;5055492;28;20233;-79
2020/12/02 08:04:21;;;;;;;33.03;18.65;;;7.40;99.90;;;;;;5040337;28;20544;-84
2020/12/02 08:06:47;;;;;;;32.83;19.88;;;7.40;99.90;;;;;;5038816;28;20537;-81
2020/12/02 08:09:13;;;;;;;32.95;20.17;;;7.40;99.90;;;;;;5030999;28;20192;-84
2020/12/02 08:12:29;;;;;;;30.20;20.80;;;7.40;99.90;;;;;;5047355;28;20194;-83
2020/12/02 08:15:11;;;;;;;33.67;18.10;;;7.40;99.90;;;;;;4995643;28;21048;-80
2020/12/02 08:17:40;;;;;;;37.15;21.10;;;7.40;99.90;;;;;;5061431;28;20207;-85
2020/12/02 08:20:33;;;;;;;35.15;21.13;;;7.30;99.90;;;;;;5043304;28;20203;-81
2020/12/02 08:23:08;;;;;;;28.80;18.70;;;7.30;99.90;;;;;;5081510;28;20191;-82
2020/12/02 08:25:45;;;;;;;41.60;24.73;;;7.30;99.90;;;;;;5040825;28;20612;-82
2020/12/02 08:28:20;;;;;;;40.67;21.83;;;7.30;99.90;;;;;;5062250;28;20196;-81
2020/12/02 08:30:57;;;;;;;35.47;19.33;;;7.20;99.90;;;;;;5040862;28;20194;-82
2020/12/02 08:33:25;;;;;;;35.92;22.00;;;7.20;99.90;;;;;;5050388;28;20678;-82
2020/12/02 08:35:54;;;;;;;34.58;19.38;;;7.20;99.90;;;;;;5047459;28;20293;-82
2020/12/02 08:38:29;;;;;;;29.92;17.98;;;7.30;99.90;;;;;;5058626;28;20214;-80
2020/12/02 08:41:03;;;;;;;34.50;19.25;;;7.20;99.90;;;;;;5052584;28;20242;-80
2020/12/02 08:43:32;;;;;;;31.35;19.58;;;7.10;99.90;;;;;;5077340;28;20686;-83
2020/12/02 08:46:09;;;;;;;30.00;17.90;;;7.10;99.90;;;;;;5083706;28;20215;-83
2020/12/02 08:48:37;;;;;;;33.15;19.10;;;7.10;99.90;;;;;;5065136;28;20183;-82
2020/12/02 08:51:08;;;;;;;29.63;18.23;;;7.10;99.90;;;;;;5048167;28;20229;-82
2020/12/02 08:53:35;;;;;;;33.83;18.80;;;7.20;99.90;;;;;;5079638;28;20617;-82
2020/12/02 08:56:03;;;;;;;28.77;17.75;;;7.10;99.90;;;;;;5081059;28;20183;-80
2020/12/02 08:58:37;;;;;;;30.27;18.88;;;7.10;99.90;;;;;;5064572;28;20211;-79
2020/12/02 09:01:10;;;;;;;26.45;18.00;;;7.10;99.90;;;;;;5079391;28;20191;-80
2020/12/02 09:03:56;;;;;;;37.15;19.35;;;7.00;99.90;;;;;;5059394;28;20257;-79
2020/12/02 09:06:28;;;;;;;28.90;18.67;;;6.90;99.90;;;;;;5065346;28;20188;-79
2020/12/02 09:08:59;;;;;;;28.42;20.10;;;6.90;99.90;;;;;;5077423;28;20395;-79
2020/12/02 09:11:34;;;;;;;30.70;19.27;;;6.90;99.90;;;;;;5084179;28;20183;-80
2020/12/02 09:14:06;;;;;;;29.85;18.45;;;6.90;99.90;;;;;;5081282;28;20187;-81
2020/12/02 09:16:43;;;;;;;32.28;18.13;;;7.00;99.90;;;;;;5051351;28;20540;-80
2020/12/02 09:19:16;;;;;;;29.02;18.00;;;7.00;99.90;;;;;;5070688;28;20647;-80
2020/12/02 09:21:46;;;;;;;24.20;17.63;;;6.90;99.90;;;;;;5076572;28;20652;-79
2020/12/02 09:24:18;;;;;;;25.38;17.48;;;6.90;99.90;;;;;;5085057;28;20575;-79
2020/12/02 09:26:49;;;;;;;35.78;21.38;;;6.90;99.90;;;;;;5087567;28;20270;-80
2020/12/02 09:29:18;;;;;;;30.17;19.83;;;6.90;99.90;;;;;;5072494;28;20191;-80
2020/12/02 09:31:46;;;;;;;23.63;17.00;;;6.80;99.90;;;;;;5078375;28;20215;-79
2020/12/02 09:34:12;;;;;;;30.33;16.60;;;6.80;99.90;;;;;;5085856;28;20505;-80
2020/12/02 09:36:41;;;;;;;26.77;19.02;;;6.80;99.90;;;;;;5070806;28;20566;-81
2020/12/02 09:39:10;;;;;;;20.83;16.85;;;6.80;99.90;;;;;;5074119;28;20199;-84
2020/12/02 09:41:48;;;;;;;21.50;15.40;;;6.80;99.90;;;;;;5038581;28;20199;-81
2020/12/02 09:44:37;;;;;;;18.15;14.10;;;6.80;99.90;;;;;;5057671;28;20193;-79
2020/12/02 09:47:31;;;;;;;20.50;14.10;;;6.70;99.90;;;;;;5069718;28;20258;-79
2020/12/02 09:50:03;;;;;;;22.50;15.85;;;6.70;99.90;;;;;;5077734;28;20284;-79
2020/12/02 09:52:48;;;;;;;18.80;13.90;;;6.70;99.90;;;;;;5065732;28;20192;-79
2020/12/02 09:55:21;;;;;;;17.77;13.00;;;6.70;99.90;;;;;;5083104;28;20184;-80
2020/12/02 09:57:55;;;;;;;15.52;11.65;;;6.70;99.90;;;;;;5058028;28;20218;-80
2020/12/02 10:00:26;;;;;;;14.25;10.95;;;6.60;99.90;;;;;;5073052;28;20184;-79
2020/12/02 10:03:36;;;;;;;14.93;11.60;;;6.50;99.90;;;;;;5093406;28;20523;-79
2020/12/02 10:06:18;;;;;;;14.80;11.10;;;6.50;99.90;;;;;;5067645;28;20247;-79
2020/12/02 10:09:11;;;;;;;15.93;11.88;;;6.60;99.90;;;;;;5071920;28;20225;-79
2020/12/02 10:12:13;;;;;;;16.90;11.45;;;6.60;99.90;;;;;;5067670;28;20203;-79
2020/12/02 10:15:04;;;;;;;12.65;10.40;;;6.40;99.90;;;;;;5078472;28;20183;-79
2020/12/02 10:17:38;;;;;;;14.55;10.77;;;6.40;99.90;;;;;;5078621;28;20672;-79
2020/12/02 10:20:30;;;;;;;14.93;10.63;;;6.30;99.90;;;;;;5086310;28;20507;-80
2020/12/02 10:23:01;;;;;;;15.05;11.43;;;6.40;99.90;;;;;;5073156;28;20226;-80
2020/12/02 10:26:04;;;;;;;13.48;11.45;;;6.40;99.90;;;;;;5067451;28;20203;-81
2020/12/02 10:28:41;;;;;;;14.90;11.32;;;6.30;99.90;;;;;;5075285;28;20210;-79
2020/12/02 10:31:10;;;;;;;13.57;11.55;;;6.30;99.90;;;;;;5091621;28;20188;-80
2020/12/02 10:33:48;;;;;;;14.30;11.05;;;6.40;99.90;;;;;;5073044;28;20186;-79
2020/12/02 10:36:17;;;;;;;15.38;11.93;;;6.40;99.90;;;;;;5063115;28;20292;-80
2020/12/02 10:38:56;;;;;;;14.80;11.80;;;6.40;99.90;;;;;;5089476;28;20183;-81
2020/12/02 10:41:32;;;;;;;23.25;12.35;;;6.30;99.90;;;;;;5082274;28;20589;-79
2020/12/02 10:44:21;;;;;;;19.30;13.45;;;6.30;99.90;;;;;;5077902;28;20207;-80
2020/12/02 10:47:17;;;;;;;14.32;11.55;;;6.30;99.90;;;;;;5066209;28;20209;-80
2020/12/02 10:49:45;;;;;;;16.73;12.68;;;6.30;99.90;;;;;;5049930;28;20223;-79
2020/12/02 10:52:16;;;;;;;16.17;12.90;;;6.30;99.90;;;;;;5058496;28;20191;-80
2020/12/02 10:54:47;;;;;;;18.38;13.18;;;6.30;99.90;;;;;;5077373;28;20207;-79
2020/12/02 10:57:18;;;;;;;19.10;14.93;;;6.20;99.90;;;;;;5083501;28;20218;-79
2020/12/02 10:59:45;;;;;;;20.02;14.43;;;6.20;99.90;;;;;;5052941;28;20180;-79
2020/12/02 11:02:19;;;;;;;16.95;13.35;;;6.10;99.90;;;;;;5070904;28;20212;-79
2020/12/02 11:04:48;;;;;;;18.63;14.20;;;6.20;99.90;;;;;;5077482;28;20658;-79
2020/12/02 11:07:52;;;;;;;14.77;12.48;;;6.20;99.90;;;;;;5058574;28;20247;-79
2020/12/02 11:10:31;;;;;;;15.68;12.25;;;6.20;99.90;;;;;;5076346;28;20186;-79
2020/12/02 11:13:29;;;;;;;17.33;12.98;;;6.20;99.90;;;;;;5061699;28;20544;-79
2020/12/02 11:16:08;;;;;;;16.52;11.77;;;6.20;99.90;;;;;;5041507;28;20196;-80
2020/12/02 11:18:54;;;;;;;16.25;12.60;;;6.30;99.90;;;;;;5076017;28;20653;-79
2020/12/02 11:21:44;;;;;;;16.38;12.50;;;6.20;99.90;;;;;;5071935;28;20645;-79
2020/12/02 11:24:39;;;;;;;16.83;12.77;;;6.30;99.90;;;;;;5057164;28;20195;-80
2020/12/02 11:27:08;;;;;;;15.88;12.75;;;6.30;99.90;;;;;;5079710;28;20184;-79
2020/12/02 11:29:42;;;;;;;18.27;13.52;;;6.30;99.90;;;;;;5080428;28;20199;-79
2020/12/02 11:32:41;;;;;;;14.93;10.70;;;6.20;99.90;;;;;;5092705;28;20191;-79
2020/12/02 11:35:15;;;;;;;15.00;12.02;;;6.30;99.90;;;;;;5058242;28;20545;-78
2020/12/02 11:38:10;;;;;;;14.93;12.25;;;6.30;99.90;;;;;;5084655;28;20219;-80
2020/12/02 11:41:02;;;;;;;14.88;11.13;;;6.30;99.90;;;;;;5069581;28;20182;-79
2020/12/02 11:43:47;;;;;;;14.27;11.77;;;6.20;99.90;;;;;;5083892;28;20222;-79
2020/12/02 11:46:22;;;;;;;14.98;12.45;;;6.30;99.90;;;;;;5095303;28;20214;-79
2020/12/02 11:49:08;;;;;;;18.70;12.40;;;6.30;99.90;;;;;;5070216;28;20270;-79
2020/12/02 11:51:53;;;;;;;16.65;12.57;;;6.30;99.90;;;;;;5068033;28;20571;-79
2020/12/02 11:54:23;;;;;;;15.57;12.52;;;6.30;99.90;;;;;;5096380;28;20195;-79
2020/12/02 11:56:54;;;;;;;17.80;13.68;;;6.40;99.90;;;;;;5075369;28;20262;-79
2020/12/02 11:59:23;;;;;;;16.15;13.13;;;6.30;99.90;;;;;;5092981;28;20507;-80
2020/12/02 12:01:57;;;;;;;17.77;13.77;;;6.40;99.90;;;;;;5107238;28;20632;-81
2020/12/02 12:04:36;;;;;;;19.55;14.80;;;6.30;99.90;;;;;;5106078;28;20631;-80
2020/12/02 12:07:58;;;;;;;17.02;13.73;;;6.40;99.90;;;;;;5071395;28;20608;-80
2020/12/02 12:10:37;;;;;;;17.50;13.90;;;6.50;99.90;;;;;;5044989;28;20199;-79
2020/12/02 12:13:41;;;;;;;17.85;13.18;;;6.30;99.90;;;;;;5069382;28;20601;-81
2020/12/02 12:16:27;;;;;;;19.85;14.18;;;6.40;99.90;;;;;;5084595;28;20195;-82
2020/12/02 12:19:04;;;;;;;19.40;14.27;;;6.40;99.90;;;;;;5081592;28;20183;-82
2020/12/02 12:21:46;;;;;;;14.50;12.70;;;6.50;99.90;;;;;;5043349;28;20183;-82
2020/12/02 12:24:20;;;;;;;17.88;13.93;;;6.50;99.90;;;;;;5075523;28;20289;-80
2020/12/02 12:26:54;;;;;;;21.15;14.40;;;6.50;99.90;;;;;;5095253;28;20220;-79
2020/12/02 12:29:20;;;;;;;21.00;13.73;;;6.50;99.90;;;;;;5063095;28;20187;-79
2020/12/02 12:32:17;;;;;;;16.80;13.30;;;6.50;99.90;;;;;;5069551;28;20195;-79
2020/12/02 12:34:57;;;;;;;20.75;14.38;;;6.40;99.90;;;;;;5102460;28;20189;-79
2020/12/02 12:37:45;;;;;;;24.10;13.80;;;6.40;99.90;;;;;;5069688;28;20309;-80
2020/12/02 12:40:24;;;;;;;17.50;14.13;;;6.40;99.90;;;;;;5059014;28;20185;-81
2020/12/02 12:42:54;;;;;;;20.90;12.70;;;6.40;99.90;;;;;;5054661;28;20184;-81
2020/12/02 12:45:35;;;;;;;12.55;10.95;;;6.40;99.90;;;;;;5090575;28;20621;-80
2020/12/02 12:48:01;;;;;;;16.92;11.40;;;6.40;99.90;;;;;;5053406;28;20196;-81
2020/12/02 12:50:37;;;;;;;15.77;11.48;;;6.40;99.90;;;;;;5063734;28;20230;-80
2020/12/02 12:53:09;;;;;;;13.95;11.07;;;6.30;99.90;;;;;;5048091;28;20192;-81
2020/12/02 12:55:37;;;;;;;13.65;10.00;;;6.20;99.90;;;;;;5080676;28;20519;-81
2020/12/02 12:58:16;;;;;;;13.05;9.95;;;6.20;99.90;;;;;;5060682;28;20207;-80
2020/12/02 13:00:52;;;;;;;13.10;10.00;;;6.30;99.90;;;;;;5079771;28;20215;-80
2020/12/02 13:03:22;;;;;;;13.25;10.70;;;6.20;99.90;;;;;;5087542;28;20203;-81
2020/12/02 13:06:00;;;;;;;13.60;11.00;;;6.30;99.90;;;;;;5058262;28;20335;-79
2020/12/02 13:08:47;;;;;;;13.05;11.60;;;6.30;99.90;;;;;;5036745;28;20693;-79
2020/12/02 13:11:37;;;;;;;14.45;11.70;;;6.30;99.90;;;;;;5027104;28;20182;-80
2020/12/02 13:14:09;;;;;;;14.02;10.60;;;6.40;99.90;;;;;;5062793;28;20184;-79
2020/12/02 13:16:45;;;;;;;15.05;11.35;;;6.40;99.90;;;;;;5065777;28;20191;-81
2020/12/02 13:19:45;;;;;;;15.32;11.48;;;6.50;99.90;;;;;;5068627;28;20184;-81